Time;durP1;ratioP1;P1;durP2;ratioP2;P2;SDS_P1;SDS_P2;PMS_P1;PMS_P2;Temp;Humidity;BMP_temperature;BMP_pressure;BME280_temperature;BME280_humidity;BME280_pressure;Samples;Min_cycle;Max_cycle;Signal;HPM_P1;HPM_P2
2022/10/07 00:00:57;;;;;;;11.57;4.15;;;;;;;14.61;50.85;102641.69;5051540;28;20487;-68
2022/10/07 00:03:25;;;;;;;8.93;3.72;;;;;;;14.57;50.82;102649.09;5054368;28;20547;-69
2022/10/07 00:05:59;;;;;;;12.00;4.10;;;;;;;14.54;51.00;102649.28;5054368;28;20561;-68
2022/10/07 00:08:25;;;;;;;11.35;4.63;;;;;;;14.51;50.91;102645.88;5055422;28;20502;-68
2022/10/07 00:10:52;;;;;;;12.32;4.03;;;;;;;14.48;50.65;102637.97;5055504;28;20071;-69
2022/10/07 00:13:18;;;;;;;8.02;3.88;;;;;;;14.43;50.85;102638.22;5055757;28;20407;-69
2022/10/07 00:15:45;;;;;;;11.27;3.97;;;;;;;14.39;51.17;102638.47;5034572;28;20049;-69
2022/10/07 00:18:11;;;;;;;11.77;3.85;;;;;;;14.37;51.24;102632.28;5032892;28;20077;-69
2022/10/07 00:20:38;;;;;;;11.48;3.95;;;;;;;14.36;51.20;102631.41;5033321;28;20107;-68
2022/10/07 00:23:06;;;;;;;13.55;3.95;;;;;;;14.32;51.16;102625.31;5033352;28;20076;-69
2022/10/07 00:25:36;;;;;;;9.88;3.53;;;;;;;14.30;51.42;102619.13;5031319;28;20062;-69
2022/10/07 00:28:03;;;;;;;10.57;4.10;;;;;;;14.29;51.29;102616.50;5039454;28;20079;-70
2022/10/07 00:30:30;;;;;;;8.63;4.43;;;;;;;14.27;51.58;102619.31;5050918;28;20041;-69
2022/10/07 00:32:57;;;;;;;14.05;4.63;;;;;;;14.26;51.63;102619.41;5051888;28;20073;-69
2022/10/07 00:35:24;;;;;;;11.13;3.78;;;;;;;14.29;51.46;102621.91;5051186;28;20060;-69
2022/10/07 00:37:51;;;;;;;12.13;4.80;;;;;;;14.30;51.80;102616.41;5051762;28;20099;-69
2022/10/07 00:40:17;;;;;;;10.43;3.95;;;;;;;14.31;51.74;102607.34;5049977;28;20041;-69
2022/10/07 00:42:45;;;;;;;8.02;4.10;;;;;;;14.32;51.52;102609.09;5039761;28;20053;-68
2022/10/07 00:45:15;;;;;;;10.60;4.30;;;;;;;14.27;51.52;102608.50;5031475;28;20054;-69
2022/10/07 00:47:48;;;;;;;11.68;3.60;;;;;;;14.23;51.52;102603.34;5064001;28;20038;-69
2022/10/07 00:50:22;;;;;;;11.48;3.95;;;;;;;14.17;51.49;102607.28;5031881;28;20125;-69
2022/10/07 00:52:54;;;;;;;9.80;3.67;;;;;;;14.16;51.66;102599.28;5031791;28;20107;-69
2022/10/07 00:55:25;;;;;;;10.95;3.97;;;;;;;14.14;51.68;102603.91;5033730;28;20045;-69
2022/10/07 00:57:56;;;;;;;11.75;4.50;;;;;;;14.12;51.82;102598.59;5034185;28;20068;-69
2022/10/07 01:00:22;;;;;;;11.30;3.88;;;;;;;14.12;52.08;102589.56;5034297;28;20042;-69
2022/10/07 01:02:50;;;;;;;10.27;4.40;;;;;;;14.14;51.85;102595.78;5032543;28;20103;-69
2022/10/07 01:05:18;;;;;;;8.63;3.58;;;;;;;14.13;52.08;102581.41;5032915;28;20045;-69
2022/10/07 01:07:47;;;;;;;8.85;3.92;;;;;;;14.12;52.02;102574.25;5030546;28;20057;-69
2022/10/07 01:10:18;;;;;;;10.68;4.22;;;;;;;14.10;51.90;102578.84;5034873;28;20033;-70
2022/10/07 01:13:08;;;;;;;10.35;4.15;;;;;;;14.10;52.30;102576.16;5050088;28;20049;-70
2022/10/07 01:15:43;;;;;;;9.50;4.43;;;;;;;14.11;52.10;102582.44;5053215;28;20102;-69
2022/10/07 01:18:20;;;;;;;11.30;4.72;;;;;;;14.09;52.12;102574.41;5053590;28;20064;-70
2022/10/07 01:20:56;;;;;;;9.95;3.95;;;;;;;14.08;51.93;102575.38;5052447;28;20453;-70
2022/10/07 01:23:27;;;;;;;9.95;3.95;;;;;;;14.07;52.01;102575.47;5052197;28;20087;-69
2022/10/07 01:26:13;;;;;;;10.80;4.00;;;;;;;14.05;52.06;102566.56;5049571;28;20049;-69
2022/10/07 01:28:43;;;;;;;9.32;4.03;;;;;;;14.06;52.12;102563.78;5034704;28;20068;-69
2022/10/07 01:31:15;;;;;;;11.00;4.18;;;;;;;14.06;52.37;102566.50;5033788;28;20052;-69
2022/10/07 01:33:49;;;;;;;9.68;4.03;;;;;;;14.06;52.57;102550.28;5034391;28;20042;-70
2022/10/07 01:36:20;;;;;;;9.52;4.40;;;;;;;14.05;52.37;102545.84;5031578;28;20049;-69
2022/10/07 01:38:52;;;;;;;8.40;4.00;;;;;;;14.07;52.20;102548.44;5039695;28;20411;-70
2022/10/07 01:41:23;;;;;;;11.30;3.88;;;;;;;14.06;52.23;102535.91;5051279;28;20049;-69
2022/10/07 01:43:53;;;;;;;11.27;4.35;;;;;;;14.05;52.22;102536.84;5050389;28;20045;-69
2022/10/07 01:46:25;;;;;;;13.77;5.13;;;;;;;14.04;52.37;102532.41;5033732;28;20111;-69
2022/10/07 01:48:55;;;;;;;11.25;3.90;;;;;;;14.05;52.26;102529.63;5050096;28;20068;-69
2022/10/07 01:51:26;;;;;;;12.30;4.38;;;;;;;14.03;52.30;102520.75;5050569;28;20495;-69
2022/10/07 01:54:20;;;;;;;9.43;3.40;;;;;;;13.98;52.07;102526.41;5036784;28;20072;-69
2022/10/07 01:57:06;;;;;;;13.52;4.32;;;;;;;13.92;52.54;102525.91;5050906;28;20049;-66
2022/10/07 02:00:00;;;;;;;10.20;3.90;;;;;;;13.86;52.19;102512.75;5035802;28;20049;-67
2022/10/07 02:03:16;;;;;;;12.52;4.28;;;;;;;13.83;52.61;102516.50;5036723;28;20049;-66
2022/10/07 02:05:57;;;;;;;10.82;3.85;;;;;;;13.82;52.38;102509.38;5036296;28;20045;-66
2022/10/07 02:08:23;;;;;;;11.23;4.18;;;;;;;13.80;52.53;102505.88;5052809;28;20132;-66
2022/10/07 02:11:03;;;;;;;8.07;3.72;;;;;;;13.78;52.34;102499.72;5036893;28;20104;-66
2022/10/07 02:13:37;;;;;;;10.88;4.75;;;;;;;13.76;52.86;102504.31;5036596;28;20042;-65
2022/10/07 02:16:20;;;;;;;12.65;4.25;;;;;;;13.73;52.39;102492.84;5050581;28;20100;-66
2022/10/07 02:18:52;;;;;;;8.68;3.80;;;;;;;13.71;52.85;102487.53;5033605;28;20393;-66
2022/10/07 02:21:25;;;;;;;14.60;5.50;;;;;;;13.70;52.63;102485.78;5042228;28;20037;-66
2022/10/07 02:23:58;;;;;;;10.23;4.13;;;;;;;13.69;52.75;102478.63;5033927;28;20037;-67
2022/10/07 02:26:28;;;;;;;9.32;3.80;;;;;;;13.68;52.68;102476.91;5051658;28;20045;-67
2022/10/07 02:29:00;;;;;;;9.60;4.10;;;;;;;13.68;53.11;102482.31;5034929;28;20056;-67
2022/10/07 02:31:31;;;;;;;11.68;4.25;;;;;;;13.68;52.96;102479.59;5035268;28;20100;-67
2022/10/07 02:34:06;;;;;;;10.75;4.60;;;;;;;13.68;53.27;102466.97;5035537;28;20050;-67
2022/10/07 02:36:39;;;;;;;11.65;4.15;;;;;;;13.70;53.08;102469.56;5051972;28;20117;-66
2022/10/07 02:39:06;;;;;;;11.32;4.20;;;;;;;13.73;53.31;102465.84;5035503;28;20125;-66
2022/10/07 02:41:57;;;;;;;10.60;4.60;;;;;;;13.71;53.35;102465.91;5034939;28;20042;-66
2022/10/07 02:44:54;;;;;;;8.38;4.03;;;;;;;13.67;53.48;102464.34;5036944;28;20048;-67
2022/10/07 02:47:34;;;;;;;15.00;4.03;;;;;;;13.66;53.20;102454.53;5035090;28;20128;-66
2022/10/07 02:50:06;;;;;;;18.10;4.60;;;;;;;13.64;53.19;102456.44;5035488;28;20492;-66
2022/10/07 02:52:33;;;;;;;13.57;3.90;;;;;;;13.62;53.52;102450.25;5035102;28;20103;-65
2022/10/07 02:55:08;;;;;;;12.50;4.78;;;;;;;13.64;53.44;102453.75;5033296;28;20087;-67
2022/10/07 02:57:50;;;;;;;11.60;4.32;;;;;;;13.63;53.54;102444.78;5049319;28;20045;-67
2022/10/07 03:00:18;;;;;;;11.35;4.10;;;;;;;13.66;53.46;102455.41;5034315;28;20092;-68
2022/10/07 03:03:01;;;;;;;12.30;4.07;;;;;;;13.65;53.46;102453.66;5036203;28;20418;-68
2022/10/07 03:05:53;;;;;;;10.18;4.55;;;;;;;13.68;53.51;102449.91;5040174;28;20057;-67
2022/10/07 03:08:22;;;;;;;13.27;4.40;;;;;;;13.67;53.27;102449.03;5032924;28;20500;-67
2022/10/07 03:10:49;;;;;;;13.55;4.38;;;;;;;13.67;53.58;102449.03;5033014;28;20046;-67
2022/10/07 03:13:16;;;;;;;14.38;4.97;;;;;;;13.64;53.51;102438.41;5032606;28;20557;-67
2022/10/07 03:15:50;;;;;;;17.17;5.05;;;;;;;13.60;53.57;102444.09;5034181;28;20092;-67
2022/10/07 03:18:25;;;;;;;12.50;5.30;;;;;;;13.55;53.55;102428.16;5065800;28;20080;-67
2022/10/07 03:20:59;;;;;;;19.70;4.88;;;;;;;13.55;53.66;102435.38;5032695;28;20554;-66
2022/10/07 03:23:28;;;;;;;12.40;5.65;;;;;;;13.54;53.56;102431.81;5032255;28;20068;-65
2022/10/07 03:25:59;;;;;;;13.25;5.22;;;;;;;13.51;53.76;102423.03;5032568;28;20033;-66
2022/10/07 03:28:28;;;;;;;12.18;4.53;;;;;;;13.49;53.55;102416.84;5049404;28;20376;-66
2022/10/07 03:31:06;;;;;;;12.40;4.75;;;;;;;13.45;53.64;102423.38;5033657;28;20080;-66
2022/10/07 03:33:36;;;;;;;13.35;4.55;;;;;;;13.45;53.76;102423.38;5033716;28;20073;-66
2022/10/07 03:36:04;;;;;;;14.05;4.97;;;;;;;13.43;53.67;102418.06;5033006;28;20571;-66
2022/10/07 03:38:32;;;;;;;11.18;4.30;;;;;;;13.40;53.84;102409.28;5052256;28;20037;-66
2022/10/07 03:41:00;;;;;;;13.10;4.43;;;;;;;13.40;53.75;102403.88;5052137;28;20053;-66
2022/10/07 03:43:27;;;;;;;12.27;4.40;;;;;;;13.39;54.01;102408.41;5038303;28;20136;-67
2022/10/07 03:45:55;;;;;;;10.93;5.03;;;;;;;13.39;53.83;102407.53;5048576;28;20048;-66
2022/10/07 03:48:22;;;;;;;14.43;4.63;;;;;;;13.40;54.10;102399.38;5032244;28;20096;-66
2022/10/07 03:50:56;;;;;;;8.43;3.78;;;;;;;13.39;53.89;102394.06;5033103;28;20079;-66
2022/10/07 03:53:28;;;;;;;11.10;3.88;;;;;;;13.38;53.98;102395.88;5048149;28;20060;-67
2022/10/07 03:55:56;;;;;;;15.68;4.85;;;;;;;13.35;54.01;102396.03;5035455;28;20420;-66
2022/10/07 03:58:23;;;;;;;9.95;3.85;;;;;;;13.34;54.16;102394.28;5033535;28;20072;-66
2022/10/07 04:00:50;;;;;;;13.70;4.47;;;;;;;13.35;54.02;102396.91;5033570;28;20500;-67
2022/10/07 04:03:17;;;;;;;10.23;3.75;;;;;;;13.36;53.99;102398.63;5047744;28;20066;-66
2022/10/07 04:05:58;;;;;;;9.02;3.90;;;;;;;13.34;54.26;102389.75;5053765;28;20041;-67
2022/10/07 04:08:27;;;;;;;15.25;4.45;;;;;;;13.33;54.03;102392.56;5054283;28;20079;-66
2022/10/07 04:10:58;;;;;;;14.02;3.58;;;;;;;13.31;53.97;102395.34;5053799;28;20052;-66
2022/10/07 04:13:26;;;;;;;13.00;4.32;;;;;;;13.32;54.34;102394.38;5053359;28;20045;-67
2022/10/07 04:15:53;;;;;;;10.20;3.65;;;;;;;13.34;54.01;102397.84;5055673;28;20087;-66
2022/10/07 04:18:21;;;;;;;12.05;3.95;;;;;;;13.33;54.23;102401.50;5052498;28;20091;-67
2022/10/07 04:20:50;;;;;;;8.35;4.03;;;;;;;13.31;54.08;102391.78;5051576;28;20045;-67
2022/10/07 04:23:16;;;;;;;7.93;4.00;;;;;;;13.26;54.08;102391.16;5052158;28;20045;-67
2022/10/07 04:25:45;;;;;;;9.65;3.97;;;;;;;13.22;53.94;102387.78;5051914;28;20072;-67
2022/10/07 04:28:22;;;;;;;11.93;3.90;;;;;;;13.20;54.25;102381.59;5051531;28;20041;-67
2022/10/07 04:30:54;;;;;;;12.60;4.65;;;;;;;13.20;54.38;102391.53;5049969;28;20049;-67
2022/10/07 04:33:26;;;;;;;13.75;4.85;;;;;;;13.15;54.36;102388.19;5051204;28;20065;-67
2022/10/07 04:35:54;;;;;;;12.63;3.95;;;;;;;13.12;54.30;102391.06;5051391;28;20124;-67
2022/10/07 04:38:22;;;;;;;17.55;4.22;;;;;;;13.10;54.50;102384.88;5051388;28;20045;-67
2022/10/07 04:40:54;;;;;;;13.57;4.05;;;;;;;13.09;54.50;102389.41;5051545;28;20041;-67
2022/10/07 04:43:22;;;;;;;12.40;4.50;;;;;;;13.10;54.78;102380.34;5051195;28;20044;-67
2022/10/07 04:46:08;;;;;;;14.40;4.85;;;;;;;13.11;54.77;102381.22;5045255;28;20384;-66
2022/10/07 04:48:42;;;;;;;14.30;3.92;;;;;;;13.13;54.68;102382.00;5031181;28;20052;-67
2022/10/07 04:51:09;;;;;;;14.80;4.78;;;;;;;13.14;54.55;102390.00;5048131;28;20043;-67
2022/10/07 04:53:38;;;;;;;7.47;3.88;;;;;;;13.12;54.47;102380.25;5051532;28;20487;-67
2022/10/07 04:56:10;;;;;;;13.70;4.60;;;;;;;13.10;54.78;102374.09;5051657;28;20041;-67
2022/10/07 04:58:37;;;;;;;12.45;4.05;;;;;;;13.06;54.57;102368.00;5051480;28;20041;-67
2022/10/07 05:01:08;;;;;;;12.18;4.53;;;;;;;13.03;54.72;102369.06;5051688;28;20419;-67
2022/10/07 05:03:39;;;;;;;13.93;4.30;;;;;;;13.01;54.87;102370.97;5050655;28;20056;-68
2022/10/07 05:06:22;;;;;;;15.68;4.63;;;;;;;12.98;54.79;102363.03;5052755;28;20045;-67
2022/10/07 05:08:51;;;;;;;14.77;4.18;;;;;;;12.97;54.66;102365.84;5051586;28;20077;-67
2022/10/07 05:11:19;;;;;;;12.43;4.20;;;;;;;12.97;54.99;102364.00;5051697;28;20045;-67
2022/10/07 05:14:01;;;;;;;13.23;3.75;;;;;;;12.97;54.83;102368.53;5051480;28;20140;-67
2022/10/07 05:16:30;;;;;;;10.00;3.55;;;;;;;12.97;55.04;102363.13;5051329;28;20040;-67
2022/10/07 05:18:57;;;;;;;9.82;3.92;;;;;;;13.00;55.03;102360.25;5049475;28;20518;-67
2022/10/07 05:21:24;;;;;;;14.02;3.95;;;;;;;13.02;55.04;102361.91;5051078;28;20044;-67
2022/10/07 05:23:56;;;;;;;23.17;5.05;;;;;;;13.05;55.09;102355.47;5051319;28;20040;-67
2022/10/07 05:26:28;;;;;;;12.20;3.90;;;;;;;13.06;54.99;102359.91;5051071;28;20043;-67
2022/10/07 05:28:58;;;;;;;10.82;4.32;;;;;;;13.07;54.79;102353.56;5051524;28;20037;-66
2022/10/07 05:31:32;;;;;;;12.70;4.28;;;;;;;13.09;54.87;102351.66;5050809;28;20049;-67
2022/10/07 05:34:04;;;;;;;11.75;4.53;;;;;;;13.11;55.03;102349.72;5050926;28;20053;-66
2022/10/07 05:36:31;;;;;;;10.60;4.82;;;;;;;13.15;55.17;102350.41;5041218;28;20052;-66
2022/10/07 05:39:00;;;;;;;12.77;4.93;;;;;;;13.17;54.89;102343.13;5031549;28;20132;-66
2022/10/07 05:41:36;;;;;;;9.90;4.55;;;;;;;13.15;54.88;102343.19;5031781;28;20045;-67
2022/10/07 05:44:17;;;;;;;11.20;3.40;;;;;;;13.15;54.66;102342.31;5033161;28;20069;-66
2022/10/07 05:46:45;;;;;;;8.77;3.90;;;;;;;13.14;54.85;102343.28;5032016;28;20045;-66
2022/10/07 05:49:14;;;;;;;13.32;4.28;;;;;;;13.13;55.16;102338.84;5032418;28;20516;-66
2022/10/07 05:51:41;;;;;;;9.68;4.03;;;;;;;13.12;55.24;102339.81;5031372;28;20053;-66
2022/10/07 05:54:12;;;;;;;16.23;5.07;;;;;;;13.10;54.98;102342.59;5032499;28;20058;-65
2022/10/07 05:56:41;;;;;;;15.40;4.75;;;;;;;13.09;54.95;102342.69;5030686;28;20072;-67
2022/10/07 05:59:09;;;;;;;11.48;4.07;;;;;;;13.05;55.16;102340.16;5030933;28;20403;-67
2022/10/07 06:01:37;;;;;;;13.98;4.07;;;;;;;13.04;55.17;102334.84;5056610;28;20048;-66
2022/10/07 06:04:13;;;;;;;12.93;4.25;;;;;;;13.05;55.38;102334.75;5031118;28;20069;-67
2022/10/07 06:06:42;;;;;;;18.20;4.32;;;;;;;13.04;55.17;102324.94;5031973;28;20045;-66
2022/10/07 06:14:49;;;;;;;10.10;4.18;;;;;;;13.05;55.16;102328.50;5065075;28;20046;-66
2022/10/07 06:17:15;;;;;;;11.00;4.28;;;;;;;13.06;55.17;102324.84;5032596;28;20057;-66
2022/10/07 06:19:44;;;;;;;9.88;3.70;;;;;;;13.07;55.43;102323.88;5031332;28;20049;-66
2022/10/07 06:22:10;;;;;;;11.85;3.72;;;;;;;13.07;55.51;102323.03;5031109;28;20041;-66
2022/10/07 06:24:42;;;;;;;11.07;4.68;;;;;;;13.06;55.62;102324.84;5031879;28;20068;-66
2022/10/07 06:27:09;;;;;;;19.58;4.70;;;;;;;13.04;55.41;102333.03;5052381;28;20045;-66
2022/10/07 06:29:37;;;;;;;11.90;3.70;;;;;;;13.04;55.53;102330.34;5051630;28;20049;-66
2022/10/07 06:32:04;;;;;;;8.20;3.95;;;;;;;13.03;55.59;102325.03;5050484;28;20091;-66
2022/10/07 06:34:32;;;;;;;11.18;3.95;;;;;;;13.02;55.72;102323.28;5041006;28;20050;-67
2022/10/07 06:36:58;;;;;;;9.05;3.97;;;;;;;13.03;55.61;102327.72;5030054;28;20103;-67
2022/10/07 06:39:25;;;;;;;12.80;3.92;;;;;;;13.06;55.87;102316.75;5048159;28;20045;-66
2022/10/07 06:41:53;;;;;;;11.73;3.58;;;;;;;13.11;55.96;102322.75;5032822;28;20045;-66
2022/10/07 06:44:33;;;;;;;12.23;4.05;;;;;;;13.16;56.01;102325.19;5033194;28;20053;-66
2022/10/07 06:47:00;;;;;;;14.70;3.90;;;;;;;13.18;55.81;102321.47;5032840;28;20049;-66
2022/10/07 06:49:27;;;;;;;12.52;3.65;;;;;;;13.21;56.17;102326.69;5038227;28;20118;-66
2022/10/07 06:51:53;;;;;;;14.18;3.65;;;;;;;13.26;56.38;102324.59;5052605;28;20049;-66
2022/10/07 06:54:24;;;;;;;8.70;3.45;;;;;;;13.31;56.07;102327.88;5054044;28;20036;-66
2022/10/07 06:56:51;;;;;;;8.75;3.20;;;;;;;13.37;56.01;102323.94;5069607;28;20045;-65
2022/10/07 06:59:17;;;;;;;11.20;3.90;;;;;;;13.45;55.90;102318.13;5053990;28;20051;-65
2022/10/07 07:01:51;;;;;;;8.65;3.17;;;;;;;13.55;56.48;102328.28;5052600;28;20100;-67
2022/10/07 07:04:26;;;;;;;11.75;3.60;;;;;;;13.68;56.30;102331.09;5052713;28;20442;-66
2022/10/07 07:06:53;;;;;;;8.85;3.53;;;;;;;13.81;56.60;102326.69;5037778;28;20458;-68
2022/10/07 07:09:21;;;;;;;14.80;4.85;;;;;;;13.96;56.40;102319.47;5042584;28;20098;-68
2022/10/07 07:11:50;;;;;;;13.65;3.58;;;;;;;14.10;56.63;102318.63;5052104;28;20064;-68
2022/10/07 07:14:34;;;;;;;12.80;3.88;;;;;;;14.27;56.56;102323.88;5051612;28;20048;-67
2022/10/07 07:17:12;;;;;;;8.80;3.33;;;;;;;14.48;56.50;102324.38;5032371;28;20676;-68
2022/10/07 07:19:42;;;;;;;16.77;3.40;;;;;;;14.68;56.42;102329.34;5033962;28;20423;-68
2022/10/07 07:22:10;;;;;;;8.00;2.92;;;;;;;14.84;56.39;102326.53;5032980;28;20095;-68
2022/10/07 07:24:39;;;;;;;7.68;3.20;;;;;;;15.01;55.83;102326.31;5032064;28;20045;-69
2022/10/07 07:27:06;;;;;;;11.07;3.35;;;;;;;15.19;55.92;102329.63;5077597;28;20499;-68
2022/10/07 07:29:34;;;;;;;9.02;3.42;;;;;;;15.36;55.75;102332.06;5051637;28;20048;-68
2022/10/07 07:32:03;;;;;;;9.88;3.28;;;;;;;15.48;55.30;102333.94;5051441;28;20071;-68
2022/10/07 07:34:36;;;;;;;12.55;3.42;;;;;;;15.61;55.14;102331.31;5051648;28;20106;-67
2022/10/07 07:37:04;;;;;;;8.85;3.13;;;;;;;15.73;55.02;102333.19;5051539;28;20143;-67
2022/10/07 07:39:36;;;;;;;8.98;2.97;;;;;;;15.82;54.95;102324.41;5051543;28;20057;-68
2022/10/07 07:42:08;;;;;;;10.90;3.45;;;;;;;15.96;55.00;102328.88;5051273;28;20464;-67
2022/10/07 07:44:37;;;;;;;7.00;2.78;;;;;;;16.09;54.74;102324.31;5051732;28;20072;-68
2022/10/07 07:47:07;;;;;;;10.15;3.35;;;;;;;16.21;54.80;102322.59;5050993;28;20044;-67
2022/10/07 07:49:35;;;;;;;12.55;2.92;;;;;;;16.32;54.47;102319.09;5051130;28;20411;-68
2022/10/07 07:52:03;;;;;;;7.88;3.35;;;;;;;16.41;54.56;102323.91;5050932;28;20056;-68
2022/10/07 07:54:40;;;;;;;10.77;2.90;;;;;;;16.52;54.59;102322.13;5051460;28;20103;-68
2022/10/07 07:57:07;;;;;;;9.18;2.58;;;;;;;16.66;54.14;102323.00;5051153;28;20080;-68
2022/10/07 07:59:36;;;;;;;7.03;2.88;;;;;;;16.78;54.39;102325.69;5052491;28;20044;-67
2022/10/07 08:02:04;;;;;;;9.30;2.78;;;;;;;16.96;54.16;102330.72;5050858;28;20041;-69
2022/10/07 08:04:35;;;;;;;11.40;3.60;;;;;;;17.08;53.20;102319.81;5051341;28;20136;-69
2022/10/07 08:07:02;;;;;;;13.57;3.75;;;;;;;17.18;53.34;102311.88;5051061;28;20048;-69
2022/10/07 08:09:28;;;;;;;9.73;3.08;;;;;;;17.31;53.49;102317.25;5050843;28;20549;-71
2022/10/07 08:11:56;;;;;;;9.02;3.40;;;;;;;17.47;53.21;102306.94;5050730;28;20048;-69
2022/10/07 08:14:23;;;;;;;14.82;4.72;;;;;;;17.60;53.36;102310.44;5050647;28;20080;-70
2022/10/07 08:16:54;;;;;;;8.93;2.92;;;;;;;17.73;53.00;102311.25;5050596;28;20068;-69
2022/10/07 08:19:20;;;;;;;13.20;3.40;;;;;;;17.80;52.61;102308.91;5050957;28;20037;-67
2022/10/07 08:21:47;;;;;;;9.85;3.50;;;;;;;17.92;52.42;102299.81;5051965;28;20037;-66
2022/10/07 08:24:24;;;;;;;19.42;4.30;;;;;;;18.08;52.29;102303.03;5050844;28;20394;-67
2022/10/07 08:26:52;;;;;;;11.40;2.90;;;;;;;18.25;52.36;102298.97;5050090;28;20048;-67
2022/10/07 08:29:19;;;;;;;8.23;2.80;;;;;;;18.37;52.18;102299.84;5050594;28;20051;-67
2022/10/07 08:31:48;;;;;;;11.10;3.00;;;;;;;18.47;52.06;102302.69;5050115;28;20040;-67
2022/10/07 08:34:16;;;;;;;12.63;2.50;;;;;;;18.59;51.69;102299.84;5050739;28;20045;-67
2022/10/07 08:36:46;;;;;;;7.63;2.38;;;;;;;18.74;51.63;102297.75;5051612;28;20071;-67
2022/10/07 08:39:13;;;;;;;11.20;2.42;;;;;;;18.85;51.39;102297.72;5051660;28;20048;-67
2022/10/07 08:42:04;;;;;;;10.73;2.78;;;;;;;18.93;51.33;102291.66;5051423;28;20549;-67
2022/10/07 08:44:40;;;;;;;12.82;3.67;;;;;;;18.99;50.83;102288.41;5051803;28;20045;-67
2022/10/07 08:47:33;;;;;;;13.82;4.30;;;;;;;19.06;51.15;102284.19;5051744;28;20036;-67
2022/10/07 08:50:17;;;;;;;9.57;2.85;;;;;;;19.22;50.76;102286.47;5051949;28;20045;-67
2022/10/07 08:53:10;;;;;;;10.40;3.08;;;;;;;19.34;50.81;102278.16;5051687;28;20040;-67
2022/10/07 08:55:44;;;;;;;15.27;3.28;;;;;;;19.46;50.51;102267.19;5051634;28;20049;-66
2022/10/07 08:58:29;;;;;;;7.38;2.75;;;;;;;19.56;50.11;102273.59;5049716;28;20506;-68
2022/10/07 09:01:11;;;;;;;11.93;3.20;;;;;;;19.64;50.43;102265.63;5048408;28;20415;-69
2022/10/07 09:04:14;;;;;;;8.77;2.40;;;;;;;19.74;50.30;102273.88;5034033;28;20049;-69
2022/10/07 09:06:54;;;;;;;9.15;2.40;;;;;;;19.89;50.23;102259.75;5034944;28;20045;-68
2022/10/07 09:09:27;;;;;;;13.38;3.53;;;;;;;20.02;49.81;102258.66;5032428;28;20057;-69
2022/10/07 09:11:55;;;;;;;6.95;2.05;;;;;;;20.13;49.94;102264.94;5031976;28;20111;-69
2022/10/07 09:14:36;;;;;;;8.10;2.38;;;;;;;20.20;49.54;102263.38;5032559;28;20557;-69
2022/10/07 09:17:14;;;;;;;7.85;2.38;;;;;;;20.21;49.38;102256.06;5045522;28;20045;-68
2022/10/07 09:19:45;;;;;;;6.97;2.45;;;;;;;20.26;49.00;102251.91;5050020;28;20044;-69
2022/10/07 09:22:20;;;;;;;12.68;2.40;;;;;;;20.30;49.25;102253.38;5050920;28;20067;-69
2022/10/07 09:25:04;;;;;;;9.52;2.60;;;;;;;20.41;49.01;102246.09;5051528;28;20040;-69
2022/10/07 09:27:36;;;;;;;7.30;2.35;;;;;;;20.50;48.68;102248.84;5051814;28;20056;-69
2022/10/07 09:30:05;;;;;;;8.15;2.55;;;;;;;20.53;48.67;102240.41;5046599;28;20041;-69
2022/10/07 09:32:34;;;;;;;7.03;2.05;;;;;;;20.55;48.28;102240.25;5050778;28;20075;-70
2022/10/07 09:35:05;;;;;;;7.95;2.50;;;;;;;20.61;48.31;102237.81;5052442;28;20064;-70
2022/10/07 09:37:33;;;;;;;9.05;2.28;;;;;;;20.69;48.09;102236.25;5053065;28;20495;-70
2022/10/07 09:40:22;;;;;;;9.93;2.50;;;;;;;20.78;47.95;102233.53;5053567;28;20041;-69
2022/10/07 09:42:49;;;;;;;10.68;2.75;;;;;;;20.90;48.13;102226.09;5053051;28;20072;-70
2022/10/07 09:45:22;;;;;;;11.55;2.33;;;;;;;20.98;48.06;102233.59;5047627;28;20440;-70
2022/10/07 09:47:54;;;;;;;11.07;2.42;;;;;;;21.05;47.71;102234.75;5051268;28;20564;-70
2022/10/07 09:50:37;;;;;;;8.07;2.33;;;;;;;21.13;47.61;102224.81;5051140;28;20045;-70
2022/10/07 09:53:17;;;;;;;8.02;2.35;;;;;;;21.24;47.36;102221.97;5050845;28;20044;-70
2022/10/07 09:55:44;;;;;;;7.43;2.03;;;;;;;21.34;47.22;102219.22;5051448;28;20107;-71
2022/10/07 09:58:28;;;;;;;11.23;3.45;;;;;;;21.33;46.70;102208.44;5051076;28;20070;-71
2022/10/07 10:00:56;;;;;;;7.70;2.28;;;;;;;21.37;46.48;102209.88;5038900;28;20095;-71
2022/10/07 10:03:34;;;;;;;9.25;2.47;;;;;;;21.41;46.70;102208.56;5048669;28;20057;-71
2022/10/07 10:06:08;;;;;;;8.68;2.67;;;;;;;21.47;46.56;102207.97;5052643;28;20588;-71
2022/10/07 10:08:42;;;;;;;8.40;2.15;;;;;;;21.54;46.45;102200.91;5053269;28;20041;-71
2022/10/07 10:11:24;;;;;;;8.05;2.40;;;;;;;21.62;46.11;102198.34;5052739;28;20049;-71
2022/10/07 10:13:55;;;;;;;8.23;2.08;;;;;;;21.72;46.12;102195.56;5055843;28;20033;-69
2022/10/07 10:16:24;;;;;;;9.60;2.17;;;;;;;21.81;45.93;102195.53;5055580;28;20072;-71
2022/10/07 10:19:01;;;;;;;14.32;2.33;;;;;;;21.94;45.90;102192.47;5053360;28;20040;-69
2022/10/07 10:21:31;;;;;;;10.68;2.70;;;;;;;22.08;46.01;102189.25;5036927;28;20044;-68
2022/10/07 10:24:09;;;;;;;9.07;2.78;;;;;;;22.16;45.43;102186.63;5037086;28;20041;-69
2022/10/07 10:26:47;;;;;;;9.80;2.20;;;;;;;22.20;45.08;102174.38;5035319;28;20041;-70
2022/10/07 10:29:38;;;;;;;9.95;2.65;;;;;;;22.25;45.04;102175.78;5046883;28;20060;-69
2022/10/07 10:32:36;;;;;;;11.95;2.65;;;;;;;22.35;45.12;102169.25;5054672;28;20052;-68
2022/10/07 10:35:35;;;;;;;11.60;2.00;;;;;;;22.54;44.81;102159.19;5055146;28;20049;-70
2022/10/07 10:38:25;;;;;;;7.57;2.20;;;;;;;22.65;44.43;102161.72;5045568;28;20045;-69
2022/10/07 10:41:10;;;;;;;9.27;2.55;;;;;;;22.70;44.16;102159.34;5055154;28;20048;-70
2022/10/07 10:44:00;;;;;;;9.38;1.95;;;;;;;22.76;43.95;102153.25;5055299;28;20033;-69
2022/10/07 10:46:38;;;;;;;7.43;2.25;;;;;;;22.78;43.56;102152.09;5056060;28;20094;-70
2022/10/07 10:49:35;;;;;;;8.30;2.05;;;;;;;22.81;43.49;102143.59;5055938;28;20056;-69
2022/10/07 10:52:24;;;;;;;5.97;1.92;;;;;;;22.88;43.15;102135.59;5054789;28;20398;-70
2022/10/07 10:55:06;;;;;;;8.23;2.20;;;;;;;22.95;43.18;102133.09;5056081;28;20052;-70
2022/10/07 10:58:15;;;;;;;6.72;1.95;;;;;;;23.04;42.65;102127.53;5053983;28;20041;-69
2022/10/07 11:00:59;;;;;;;9.35;2.30;;;;;;;23.20;42.46;102121.31;5053789;28;20102;-70
2022/10/07 11:03:53;;;;;;;9.00;1.83;;;;;;;23.30;42.34;102127.56;5054021;28;20455;-69
2022/10/07 11:06:21;;;;;;;6.57;2.05;;;;;;;23.42;42.33;102122.66;5050691;28;20095;-70
2022/10/07 11:08:51;;;;;;;9.18;2.25;;;;;;;23.50;42.21;102114.47;5038876;28;20102;-69
2022/10/07 11:11:20;;;;;;;8.82;2.00;;;;;;;23.59;41.82;102109.94;5053629;28;20573;-69
2022/10/07 11:14:11;;;;;;;9.57;1.90;;;;;;;23.63;41.90;102100.34;5052557;28;20388;-71
2022/10/07 11:16:43;;;;;;;13.55;2.45;;;;;;;23.73;41.56;102112.06;5048701;28;20116;-69
2022/10/07 11:19:22;;;;;;;8.98;2.25;;;;;;;23.77;41.41;102100.59;5035962;28;20072;-70
2022/10/07 11:21:51;;;;;;;13.05;2.97;;;;;;;23.85;41.35;102101.69;5035823;28;20042;-70
2022/10/07 11:24:43;;;;;;;12.85;2.40;;;;;;;23.91;41.05;102084.56;5034255;28;20041;-70
2022/10/07 11:27:24;;;;;;;8.40;2.03;;;;;;;23.97;41.06;102087.50;5040942;28;20033;-71
2022/10/07 11:30:08;;;;;;;8.63;2.63;;;;;;;24.01;40.96;102083.38;5052936;28;20053;-70
2022/10/07 11:33:07;;;;;;;9.60;3.20;;;;;;;24.07;40.79;102074.50;5056956;28;20045;-70
2022/10/07 11:35:42;;;;;;;8.88;2.10;;;;;;;24.15;40.80;102067.28;5054595;28;20095;-70
2022/10/07 11:38:09;;;;;;;10.25;1.90;;;;;;;24.21;40.69;102058.38;5054064;28;20041;-70
2022/10/07 11:40:44;;;;;;;7.78;2.03;;;;;;;24.29;40.39;102058.44;5053920;28;20052;-70
2022/10/07 11:43:40;;;;;;;10.70;2.05;;;;;;;24.35;40.14;102052.25;5052704;28;20036;-70
2022/10/07 11:46:32;;;;;;;9.93;2.10;;;;;;;24.41;40.00;102040.59;5052823;28;20045;-70
2022/10/07 11:49:13;;;;;;;7.28;1.80;;;;;;;24.54;40.00;102038.22;5052931;28;20045;-69
2022/10/07 11:52:01;;;;;;;7.80;2.05;;;;;;;24.62;39.76;102030.00;5052789;28;20399;-69
2022/10/07 11:54:41;;;;;;;9.63;1.85;;;;;;;24.68;39.60;102021.06;5051431;28;20047;-70